Overview Statistics Trail Chart Weather Telemetry Raw packets
 

This is the latest recevied weather packets stored in our database for station/object EA5JMY-10. If no packets are shown the sender has not sent any weather packets the latest 10 day(s).

<< 3 4 5 6 7 8 9 >>
Time Temp. Humidity Pressure Rain* Wind** Luminosity Snow
1788514852 37.78° C 39% 1022.3 hPa - - - -
1788513952 35.56° C 44% 1022.4 hPa - - - -
1788513052 38.33° C 38% 1022.3 hPa - - - -
1788512152 43.33° C 28% 1022.3 hPa - - - -
1788511252 40.56° C 34% 1022.4 hPa - - - -
1788510352 37.78° C 39% 1022.3 hPa - - - -
1788509451 38.89° C 37% 1022.3 hPa - - - -
1788508551 35.56° C 44% 1022.3 hPa - - - -
1788507651 35° C 47% 1022.3 hPa - - - -
1788506775 37.22° C 43% 1022.4 hPa - - - -
1788505851 35.56° C 44% 1022.6 hPa - - - -
1788504951 33.89° C 50% 1022.5 hPa - - - -
1788504051 29.44° C 62% 1022.5 hPa - - - -
1788503151 30° C 68% 1022.5 hPa - - - -
1788502251 27.22° C 76% 1022.5 hPa - - - -
1788501350 26.11° C 81% 1022.3 hPa - - - -
1788500450 25° C 81% 1022.2 hPa - - - -
1788499550 25° C 80% 1022.1 hPa - - - -
1788498650 25° C 81% 1022.1 hPa - - - -
1788497750 25° C 80% 1022.2 hPa - - - -
1788496850 25.56° C 82% 1022.2 hPa - - - -
1788495950 25.56° C 80% 1022.2 hPa - - - -
1788495050 25.56° C 79% 1022.2 hPa - - - -
1788494149 26.11° C 79% 1022.2 hPa - - - -
1788493249 25.56° C 79% 1022.4 hPa - - - -

* Rain since midnight (hover to see other rain measurements)
** Current wind speed in m/s (hover to see current wind gust speed)